sensor_id;sensor_type;location;lat;lon;timestamp;temperature;humidity
45619;DHT22;31343;47.520;19.144;2023-04-01T00:00:20;10.50;99.90
45619;DHT22;31343;47.520;19.144;2023-04-01T00:02:46;10.40;99.90
45619;DHT22;31343;47.520;19.144;2023-04-01T00:05:12;10.50;99.90
45619;DHT22;31343;47.520;19.144;2023-04-01T00:07:38;10.50;99.90
45619;DHT22;31343;47.520;19.144;2023-04-01T00:10:08;10.40;99.90
45619;DHT22;31343;47.520;19.144;2023-04-01T00:12:35;10.40;99.90
45619;DHT22;31343;47.520;19.144;2023-04-01T00:15:02;10.40;99.90
45619;DHT22;31343;47.520;19.144;2023-04-01T00:17:28;10.40;99.90
45619;DHT22;31343;47.520;19.144;2023-04-01T00:19:56;10.30;99.90
45619;DHT22;31343;47.520;19.144;2023-04-01T00:22:25;10.40;99.90
45619;DHT22;31343;47.520;19.144;2023-04-01T00:24:53;10.40;99.90
45619;DHT22;31343;47.520;19.144;2023-04-01T00:27:18;10.40;99.90
45619;DHT22;31343;47.520;19.144;2023-04-01T00:29:45;10.40;99.90
45619;DHT22;31343;47.520;19.144;2023-04-01T00:32:12;10.40;99.90
45619;DHT22;31343;47.520;19.144;2023-04-01T00:34:38;10.40;99.90
45619;DHT22;31343;47.520;19.144;2023-04-01T00:37:06;10.40;99.90
45619;DHT22;31343;47.520;19.144;2023-04-01T00:39:33;10.50;99.90
45619;DHT22;31343;47.520;19.144;2023-04-01T00:42:00;10.40;99.90
45619;DHT22;31343;47.520;19.144;2023-04-01T00:44:31;10.40;99.90
45619;DHT22;31343;47.520;19.144;2023-04-01T00:46:59;10.40;99.90
45619;DHT22;31343;47.520;19.144;2023-04-01T00:49:33;10.50;99.90
45619;DHT22;31343;47.520;19.144;2023-04-01T00:52:03;10.30;99.90
45619;DHT22;31343;47.520;19.144;2023-04-01T00:54:30;10.40;99.90
45619;DHT22;31343;47.520;19.144;2023-04-01T00:57:04;10.40;99.90
45619;DHT22;31343;47.520;19.144;2023-04-01T00:59:39;10.30;99.90
45619;DHT22;31343;47.520;19.144;2023-04-01T01:02:08;10.20;99.90
45619;DHT22;31343;47.520;19.144;2023-04-01T01:04:36;10.30;99.90
45619;DHT22;31343;47.520;19.144;2023-04-01T01:15:40;10.20;99.90
45619;DHT22;31343;47.520;19.144;2023-04-01T01:18:34;10.30;99.90
45619;DHT22;31343;47.520;19.144;2023-04-01T01:26:53;10.40;99.90
45619;DHT22;31343;47.520;19.144;2023-04-01T01:35:49;10.30;99.90
45619;DHT22;31343;47.520;19.144;2023-04-01T01:38:18;10.30;99.90
45619;DHT22;31343;47.520;19.144;2023-04-01T01:40:49;10.30;99.90
45619;DHT22;31343;47.520;19.144;2023-04-01T01:43:23;10.20;99.90
45619;DHT22;31343;47.520;19.144;2023-04-01T01:45:54;10.10;99.90
45619;DHT22;31343;47.520;19.144;2023-04-01T01:48:23;10.00;99.90
45619;DHT22;31343;47.520;19.144;2023-04-01T01:50:51;10.00;99.90
45619;DHT22;31343;47.520;19.144;2023-04-01T01:53:17;10.10;99.90
45619;DHT22;31343;47.520;19.144;2023-04-01T01:55:45;10.10;99.90
45619;DHT22;31343;47.520;19.144;2023-04-01T02:00:43;10.10;99.90
45619;DHT22;31343;47.520;19.144;2023-04-01T02:03:11;10.10;99.90
45619;DHT22;31343;47.520;19.144;2023-04-01T02:05:38;10.10;99.90
45619;DHT22;31343;47.520;19.144;2023-04-01T02:08:25;10.10;99.90
45619;DHT22;31343;47.520;19.144;2023-04-01T02:11:04;10.10;99.90
45619;DHT22;31343;47.520;19.144;2023-04-01T02:13:39;10.00;99.90
45619;DHT22;31343;47.520;19.144;2023-04-01T02:16:14;10.00;99.90
45619;DHT22;31343;47.520;19.144;2023-04-01T02:18:42;10.00;99.90
45619;DHT22;31343;47.520;19.144;2023-04-01T02:21:10;10.10;99.90
45619;DHT22;31343;47.520;19.144;2023-04-01T02:23:36;10.10;99.90
45619;DHT22;31343;47.520;19.144;2023-04-01T02:26:05;10.00;99.90
45619;DHT22;31343;47.520;19.144;2023-04-01T02:28:33;10.00;99.90
45619;DHT22;31343;47.520;19.144;2023-04-01T02:31:01;10.00;99.90
45619;DHT22;31343;47.520;19.144;2023-04-01T02:33:28;10.00;99.90
45619;DHT22;31343;47.520;19.144;2023-04-01T02:35:54;9.90;99.90
45619;DHT22;31343;47.520;19.144;2023-04-01T02:38:20;9.90;99.90
45619;DHT22;31343;47.520;19.144;2023-04-01T02:40:49;9.90;99.90
45619;DHT22;31343;47.520;19.144;2023-04-01T02:43:15;9.70;99.90
45619;DHT22;31343;47.520;19.144;2023-04-01T02:45:42;9.80;99.90
45619;DHT22;31343;47.520;19.144;2023-04-01T02:48:09;9.80;99.90
45619;DHT22;31343;47.520;19.144;2023-04-01T02:50:34;9.80;99.90
45619;DHT22;31343;47.520;19.144;2023-04-01T02:53:01;9.60;99.90
45619;DHT22;31343;47.520;19.144;2023-04-01T02:55:29;9.70;99.90
45619;DHT22;31343;47.520;19.144;2023-04-01T02:57:56;9.70;99.90
45619;DHT22;31343;47.520;19.144;2023-04-01T03:00:22;9.60;99.90
45619;DHT22;31343;47.520;19.144;2023-04-01T03:02:48;9.60;99.90
45619;DHT22;31343;47.520;19.144;2023-04-01T03:05:13;9.70;99.90
45619;DHT22;31343;47.520;19.144;2023-04-01T03:07:40;9.70;99.90
45619;DHT22;31343;47.520;19.144;2023-04-01T03:10:06;9.70;99.90
45619;DHT22;31343;47.520;19.144;2023-04-01T03:12:32;9.70;99.90
45619;DHT22;31343;47.520;19.144;2023-04-01T03:14:58;9.70;99.90
45619;DHT22;31343;47.520;19.144;2023-04-01T03:17:24;9.80;99.90
45619;DHT22;31343;47.520;19.144;2023-04-01T03:19:49;9.80;99.90
45619;DHT22;31343;47.520;19.144;2023-04-01T03:22:15;9.70;99.90
45619;DHT22;31343;47.520;19.144;2023-04-01T03:24:41;9.70;99.90
45619;DHT22;31343;47.520;19.144;2023-04-01T03:27:07;9.60;99.90
45619;DHT22;31343;47.520;19.144;2023-04-01T03:29:32;9.60;99.90
45619;DHT22;31343;47.520;19.144;2023-04-01T03:31:58;9.60;99.90
45619;DHT22;31343;47.520;19.144;2023-04-01T03:34:25;9.70;99.90
45619;DHT22;31343;47.520;19.144;2023-04-01T03:36:51;9.60;99.90
45619;DHT22;31343;47.520;19.144;2023-04-01T03:39:17;9.60;99.90
45619;DHT22;31343;47.520;19.144;2023-04-01T03:41:46;9.60;99.90
45619;DHT22;31343;47.520;19.144;2023-04-01T03:44:12;9.50;99.90
45619;DHT22;31343;47.520;19.144;2023-04-01T03:46:37;9.50;99.90
45619;DHT22;31343;47.520;19.144;2023-04-01T03:49:06;9.60;99.90
45619;DHT22;31343;47.520;19.144;2023-04-01T03:51:37;9.60;99.90
45619;DHT22;31343;47.520;19.144;2023-04-01T03:54:04;9.60;99.90
45619;DHT22;31343;47.520;19.144;2023-04-01T03:56:30;9.60;99.90
45619;DHT22;31343;47.520;19.144;2023-04-01T03:58:56;9.60;99.90
45619;DHT22;31343;47.520;19.144;2023-04-01T04:01:22;9.60;99.90
45619;DHT22;31343;47.520;19.144;2023-04-01T04:03:49;9.70;99.90
45619;DHT22;31343;47.520;19.144;2023-04-01T04:06:16;9.80;99.90
45619;DHT22;31343;47.520;19.144;2023-04-01T04:08:43;9.80;99.90
45619;DHT22;31343;47.520;19.144;2023-04-01T04:11:10;9.80;99.90
45619;DHT22;31343;47.520;19.144;2023-04-01T04:13:36;9.90;99.90
45619;DHT22;31343;47.520;19.144;2023-04-01T04:16:02;9.90;99.90
45619;DHT22;31343;47.520;19.144;2023-04-01T04:18:29;9.90;99.90
45619;DHT22;31343;47.520;19.144;2023-04-01T04:20:55;10.00;99.90
45619;DHT22;31343;47.520;19.144;2023-04-01T04:23:21;10.00;99.90
45619;DHT22;31343;47.520;19.144;2023-04-01T04:26:11;10.00;99.90
45619;DHT22;31343;47.520;19.144;2023-04-01T04:28:37;10.00;99.90
45619;DHT22;31343;47.520;19.144;2023-04-01T04:31:03;10.00;99.90
45619;DHT22;31343;47.520;19.144;2023-04-01T04:33:30;10.10;99.90
45619;DHT22;31343;47.520;19.144;2023-04-01T04:35:57;10.10;99.90
45619;DHT22;31343;47.520;19.144;2023-04-01T04:38:24;10.20;99.90
45619;DHT22;31343;47.520;19.144;2023-04-01T04:40:50;10.10;99.90
45619;DHT22;31343;47.520;19.144;2023-04-01T04:43:17;10.10;99.90
45619;DHT22;31343;47.520;19.144;2023-04-01T04:45:43;10.10;99.90
45619;DHT22;31343;47.520;19.144;2023-04-01T04:48:10;10.10;99.90
45619;DHT22;31343;47.520;19.144;2023-04-01T04:50:41;10.10;99.90
45619;DHT22;31343;47.520;19.144;2023-04-01T04:53:12;10.10;99.90
45619;DHT22;31343;47.520;19.144;2023-04-01T04:55:42;10.10;99.90
45619;DHT22;31343;47.520;19.144;2023-04-01T04:58:08;10.10;99.90
45619;DHT22;31343;47.520;19.144;2023-04-01T05:00:33;10.00;99.90
45619;DHT22;31343;47.520;19.144;2023-04-01T05:02:59;10.10;99.90
45619;DHT22;31343;47.520;19.144;2023-04-01T05:05:25;10.20;99.90
45619;DHT22;31343;47.520;19.144;2023-04-01T05:07:51;10.30;99.90
45619;DHT22;31343;47.520;19.144;2023-04-01T05:10:16;10.40;99.90
45619;DHT22;31343;47.520;19.144;2023-04-01T05:12:42;10.60;99.90
45619;DHT22;31343;47.520;19.144;2023-04-01T05:15:08;10.70;99.90
45619;DHT22;31343;47.520;19.144;2023-04-01T05:17:34;10.80;99.90
45619;DHT22;31343;47.520;19.144;2023-04-01T05:20:00;10.80;99.90
45619;DHT22;31343;47.520;19.144;2023-04-01T05:22:26;10.80;99.90
45619;DHT22;31343;47.520;19.144;2023-04-01T05:24:52;11.10;99.90
45619;DHT22;31343;47.520;19.144;2023-04-01T05:27:18;11.20;99.90
45619;DHT22;31343;47.520;19.144;2023-04-01T05:29:44;11.50;99.90
45619;DHT22;31343;47.520;19.144;2023-04-01T05:32:09;12.10;99.90
45619;DHT22;31343;47.520;19.144;2023-04-01T05:34:35;12.80;99.90
45619;DHT22;31343;47.520;19.144;2023-04-01T05:37:01;13.50;99.90
45619;DHT22;31343;47.520;19.144;2023-04-01T05:39:27;14.30;99.90
45619;DHT22;31343;47.520;19.144;2023-04-01T05:41:52;14.40;99.90
45619;DHT22;31343;47.520;19.144;2023-04-01T05:44:18;14.50;99.90
45619;DHT22;31343;47.520;19.144;2023-04-01T05:46:45;14.90;99.90
45619;DHT22;31343;47.520;19.144;2023-04-01T05:49:10;15.30;99.90
45619;DHT22;31343;47.520;19.144;2023-04-01T05:51:36;16.20;99.90
45619;DHT22;31343;47.520;19.144;2023-04-01T05:54:04;16.40;99.90
45619;DHT22;31343;47.520;19.144;2023-04-01T05:56:30;16.50;99.90
45619;DHT22;31343;47.520;19.144;2023-04-01T05:58:56;16.40;99.90
45619;DHT22;31343;47.520;19.144;2023-04-01T06:01:22;16.20;99.90
45619;DHT22;31343;47.520;19.144;2023-04-01T06:03:47;16.30;99.90
45619;DHT22;31343;47.520;19.144;2023-04-01T06:06:23;16.00;99.90
45619;DHT22;31343;47.520;19.144;2023-04-01T06:08:49;15.20;99.90
45619;DHT22;31343;47.520;19.144;2023-04-01T06:14:10;15.30;99.90
45619;DHT22;31343;47.520;19.144;2023-04-01T06:27:24;15.30;99.70
45619;DHT22;31343;47.520;19.144;2023-04-01T06:32:50;14.40;99.90
45619;DHT22;31343;47.520;19.144;2023-04-01T06:37:57;14.30;99.90
45619;DHT22;31343;47.520;19.144;2023-04-01T06:52:05;16.60;98.50
45619;DHT22;31343;47.520;19.144;2023-04-01T06:54:38;16.70;97.70
45619;DHT22;31343;47.520;19.144;2023-04-01T06:57:32;16.90;97.30
45619;DHT22;31343;47.520;19.144;2023-04-01T07:00:04;17.00;97.90
45619;DHT22;31343;47.520;19.144;2023-04-01T07:02:52;17.40;96.70
45619;DHT22;31343;47.520;19.144;2023-04-01T07:05:22;17.70;96.40
45619;DHT22;31343;47.520;19.144;2023-04-01T07:07:51;17.80;95.60
45619;DHT22;31343;47.520;19.144;2023-04-01T07:10:43;17.80;95.20
45619;DHT22;31343;47.520;19.144;2023-04-01T07:14:17;18.10;95.50
45619;DHT22;31343;47.520;19.144;2023-04-01T07:16:27;17.90;95.10
45619;DHT22;31343;47.520;19.144;2023-04-01T07:24:44;18.50;93.90
45619;DHT22;31343;47.520;19.144;2023-04-01T07:27:13;19.10;93.90
45619;DHT22;31343;47.520;19.144;2023-04-01T07:29:39;19.40;92.70
45619;DHT22;31343;47.520;19.144;2023-04-01T07:40:32;19.90;90.90
45619;DHT22;31343;47.520;19.144;2023-04-01T07:45:35;19.90;91.20
45619;DHT22;31343;47.520;19.144;2023-04-01T07:51:15;19.50;90.50
45619;DHT22;31343;47.520;19.144;2023-04-01T08:01:55;20.40;89.30
45619;DHT22;31343;47.520;19.144;2023-04-01T08:07:15;20.50;86.90
45619;DHT22;31343;47.520;19.144;2023-04-01T08:15:27;19.80;87.80
45619;DHT22;31343;47.520;19.144;2023-04-01T08:18:04;20.00;89.70
45619;DHT22;31343;47.520;19.144;2023-04-01T08:31:29;19.30;90.60
45619;DHT22;31343;47.520;19.144;2023-04-01T08:33:56;18.90;90.30
45619;DHT22;31343;47.520;19.144;2023-04-01T08:36:28;18.70;91.20
45619;DHT22;31343;47.520;19.144;2023-04-01T08:39:07;18.90;91.10
45619;DHT22;31343;47.520;19.144;2023-04-01T08:42:15;18.80;91.50
45619;DHT22;31343;47.520;19.144;2023-04-01T08:47:50;18.10;91.50
45619;DHT22;31343;47.520;19.144;2023-04-01T08:53:07;18.10;91.90
45619;DHT22;31343;47.520;19.144;2023-04-01T09:04:25;17.10;93.00
45619;DHT22;31343;47.520;19.144;2023-04-01T09:07:16;16.80;93.10
45619;DHT22;31343;47.520;19.144;2023-04-01T09:09:58;16.70;93.70
45619;DHT22;31343;47.520;19.144;2023-04-01T09:15:36;16.60;94.70
45619;DHT22;31343;47.520;19.144;2023-04-01T09:27:02;16.90;94.40
45619;DHT22;31343;47.520;19.144;2023-04-01T09:35:22;17.20;94.40
45619;DHT22;31343;47.520;19.144;2023-04-01T09:43:28;17.10;93.60
45619;DHT22;31343;47.520;19.144;2023-04-01T09:46:03;17.00;94.00
45619;DHT22;31343;47.520;19.144;2023-04-01T10:19:20;16.10;96.70
45619;DHT22;31343;47.520;19.144;2023-04-01T10:22:11;16.00;96.50
45619;DHT22;31343;47.520;19.144;2023-04-01T10:49:56;15.20;99.20
45619;DHT22;31343;47.520;19.144;2023-04-01T10:58:20;14.90;98.90
45619;DHT22;31343;47.520;19.144;2023-04-01T11:14:58;15.70;99.50
45619;DHT22;31343;47.520;19.144;2023-04-01T11:32:20;16.20;96.80
45619;DHT22;31343;47.520;19.144;2023-04-01T11:35:17;15.80;96.80
45619;DHT22;31343;47.520;19.144;2023-04-01T11:46:15;15.50;97.30
45619;DHT22;31343;47.520;19.144;2023-04-01T11:56:41;14.90;98.80
45619;DHT22;31343;47.520;19.144;2023-04-01T11:59:25;14.90;99.90
45619;DHT22;31343;47.520;19.144;2023-04-01T12:02:14;14.80;99.90
45619;DHT22;31343;47.520;19.144;2023-04-01T12:07:57;14.60;99.90
45619;DHT22;31343;47.520;19.144;2023-04-01T12:10:39;14.60;99.90
45619;DHT22;31343;47.520;19.144;2023-04-01T12:16:00;14.90;99.80
45619;DHT22;31343;47.520;19.144;2023-04-01T12:18:35;15.00;99.80
45619;DHT22;31343;47.520;19.144;2023-04-01T12:21:20;15.20;99.30
45619;DHT22;31343;47.520;19.144;2023-04-01T12:29:35;16.80;96.70
45619;DHT22;31343;47.520;19.144;2023-04-01T12:35:13;17.30;95.10
45619;DHT22;31343;47.520;19.144;2023-04-01T12:41:08;17.10;94.60
45619;DHT22;31343;47.520;19.144;2023-04-01T12:49:23;17.50;94.30
45619;DHT22;31343;47.520;19.144;2023-04-01T13:03:16;20.70;88.30
45619;DHT22;31343;47.520;19.144;2023-04-01T13:08:43;21.30;85.60
45619;DHT22;31343;47.520;19.144;2023-04-01T13:17:04;22.70;78.00
45619;DHT22;31343;47.520;19.144;2023-04-01T13:25:20;22.20;77.90
45619;DHT22;31343;47.520;19.144;2023-04-01T13:28:01;21.60;78.20
45619;DHT22;31343;47.520;19.144;2023-04-01T13:34:15;21.00;80.50
45619;DHT22;31343;47.520;19.144;2023-04-01T13:36:37;20.40;80.50
45619;DHT22;31343;47.520;19.144;2023-04-01T13:42:21;19.90;81.20
45619;DHT22;31343;47.520;19.144;2023-04-01T13:50:43;19.60;82.10
45619;DHT22;31343;47.520;19.144;2023-04-01T13:56:33;19.10;83.20
45619;DHT22;31343;47.520;19.144;2023-04-01T14:10:07;18.50;85.10
45619;DHT22;31343;47.520;19.144;2023-04-01T14:13:01;18.40;86.30
45619;DHT22;31343;47.520;19.144;2023-04-01T14:15:47;18.10;85.90
45619;DHT22;31343;47.520;19.144;2023-04-01T14:21:21;18.00;86.90
45619;DHT22;31343;47.520;19.144;2023-04-01T14:23:55;18.00;88.00
45619;DHT22;31343;47.520;19.144;2023-04-01T14:37:23;17.30;90.30
45619;DHT22;31343;47.520;19.144;2023-04-01T14:45:58;16.90;90.50
45619;DHT22;31343;47.520;19.144;2023-04-01T14:48:32;16.90;90.30
45619;DHT22;31343;47.520;19.144;2023-04-01T14:51:17;17.00;90.70
45619;DHT22;31343;47.520;19.144;2023-04-01T14:54:13;17.00;90.80
45619;DHT22;31343;47.520;19.144;2023-04-01T14:56:50;17.10;90.40
45619;DHT22;31343;47.520;19.144;2023-04-01T15:01:55;17.10;90.40
45619;DHT22;31343;47.520;19.144;2023-04-01T15:07:43;17.00;90.40
45619;DHT22;31343;47.520;19.144;2023-04-01T15:10:53;17.10;90.70
45619;DHT22;31343;47.520;19.144;2023-04-01T15:19:10;16.70;90.20
45619;DHT22;31343;47.520;19.144;2023-04-01T15:25:05;16.40;91.10
45619;DHT22;31343;47.520;19.144;2023-04-01T15:28:07;16.30;91.20
45619;DHT22;31343;47.520;19.144;2023-04-01T15:31:04;16.20;91.40
45619;DHT22;31343;47.520;19.144;2023-04-01T15:33:50;16.00;91.60
45619;DHT22;31343;47.520;19.144;2023-04-01T15:36:26;16.10;91.80
45619;DHT22;31343;47.520;19.144;2023-04-01T15:39:09;16.10;91.70
45619;DHT22;31343;47.520;19.144;2023-04-01T15:41:53;16.30;91.60
45619;DHT22;31343;47.520;19.144;2023-04-01T15:44:34;16.40;91.20
45619;DHT22;31343;47.520;19.144;2023-04-01T15:47:24;16.40;90.80
45619;DHT22;31343;47.520;19.144;2023-04-01T15:49:56;16.30;90.60
45619;DHT22;31343;47.520;19.144;2023-04-01T15:55:27;16.20;91.10
45619;DHT22;31343;47.520;19.144;2023-04-01T15:58:21;16.30;91.10
45619;DHT22;31343;47.520;19.144;2023-04-01T16:03:52;16.30;91.10
45619;DHT22;31343;47.520;19.144;2023-04-01T16:09:52;16.10;91.00
45619;DHT22;31343;47.520;19.144;2023-04-01T16:12:52;16.10;90.20
45619;DHT22;31343;47.520;19.144;2023-04-01T16:15:32;16.10;90.10
45619;DHT22;31343;47.520;19.144;2023-04-01T16:21:00;16.10;89.60
45619;DHT22;31343;47.520;19.144;2023-04-01T16:23:40;16.00;89.10
45619;DHT22;31343;47.520;19.144;2023-04-01T16:26:55;16.00;90.00
45619;DHT22;31343;47.520;19.144;2023-04-01T16:32:50;16.00;90.30
45619;DHT22;31343;47.520;19.144;2023-04-01T16:35:29;16.00;90.10
45619;DHT22;31343;47.520;19.144;2023-04-01T16:38:03;16.00;90.10
45619;DHT22;31343;47.520;19.144;2023-04-01T16:43:42;16.00;91.10
45619;DHT22;31343;47.520;19.144;2023-04-01T16:49:00;15.80;91.60
45619;DHT22;31343;47.520;19.144;2023-04-01T16:52:00;15.80;91.70
45619;DHT22;31343;47.520;19.144;2023-04-01T16:59:38;15.50;92.30
45619;DHT22;31343;47.520;19.144;2023-04-01T17:04:53;15.30;92.80
45619;DHT22;31343;47.520;19.144;2023-04-01T17:18:52;14.90;93.90
45619;DHT22;31343;47.520;19.144;2023-04-01T17:24:36;14.70;94.10
45619;DHT22;31343;47.520;19.144;2023-04-01T17:41:48;14.40;95.00
45619;DHT22;31343;47.520;19.144;2023-04-01T17:44:38;14.30;95.10
45619;DHT22;31343;47.520;19.144;2023-04-01T17:50:28;14.20;95.30
45619;DHT22;31343;47.520;19.144;2023-04-01T17:53:17;14.20;95.30
45619;DHT22;31343;47.520;19.144;2023-04-01T17:58:44;14.10;95.40
45619;DHT22;31343;47.520;19.144;2023-04-01T18:01:41;14.10;95.70
45619;DHT22;31343;47.520;19.144;2023-04-01T18:04:37;14.10;95.50
45619;DHT22;31343;47.520;19.144;2023-04-01T18:07:18;14.00;95.50
45619;DHT22;31343;47.520;19.144;2023-04-01T18:15:19;14.00;96.40
45619;DHT22;31343;47.520;19.144;2023-04-01T18:20:28;13.90;96.20
45619;DHT22;31343;47.520;19.144;2023-04-01T18:22:58;13.90;96.70
45619;DHT22;31343;47.520;19.144;2023-04-01T18:25:34;13.80;96.90
45619;DHT22;31343;47.520;19.144;2023-04-01T18:39:32;13.50;98.40
45619;DHT22;31343;47.520;19.144;2023-04-01T18:42:29;13.40;98.30
45619;DHT22;31343;47.520;19.144;2023-04-01T18:50:52;13.30;98.70
45619;DHT22;31343;47.520;19.144;2023-04-01T18:55:59;13.20;99.20
45619;DHT22;31343;47.520;19.144;2023-04-01T19:01:28;13.20;99.60
45619;DHT22;31343;47.520;19.144;2023-04-01T19:10:00;13.10;99.80
45619;DHT22;31343;47.520;19.144;2023-04-01T19:18:02;13.10;99.80
45619;DHT22;31343;47.520;19.144;2023-04-01T19:20:42;13.10;99.80
45619;DHT22;31343;47.520;19.144;2023-04-01T19:23:46;13.10;99.70
45619;DHT22;31343;47.520;19.144;2023-04-01T19:26:05;13.10;99.90
45619;DHT22;31343;47.520;19.144;2023-04-01T19:28:57;13.10;99.90
45619;DHT22;31343;47.520;19.144;2023-04-01T19:36:44;13.10;99.90
45619;DHT22;31343;47.520;19.144;2023-04-01T19:42:36;13.00;99.90
45619;DHT22;31343;47.520;19.144;2023-04-01T19:45:43;13.00;99.90
45619;DHT22;31343;47.520;19.144;2023-04-01T19:53:34;12.80;99.90
45619;DHT22;31343;47.520;19.144;2023-04-01T19:56:14;12.80;99.90
45619;DHT22;31343;47.520;19.144;2023-04-01T19:58:50;12.70;99.90
45619;DHT22;31343;47.520;19.144;2023-04-01T20:04:29;12.60;99.90
45619;DHT22;31343;47.520;19.144;2023-04-01T20:07:07;12.50;99.90
45619;DHT22;31343;47.520;19.144;2023-04-01T20:12:56;12.40;99.90
45619;DHT22;31343;47.520;19.144;2023-04-01T20:17:58;12.30;99.90
45619;DHT22;31343;47.520;19.144;2023-04-01T20:20:27;12.30;99.90
45619;DHT22;31343;47.520;19.144;2023-04-01T20:25:54;12.10;99.90
45619;DHT22;31343;47.520;19.144;2023-04-01T20:28:32;12.20;99.90
45619;DHT22;31343;47.520;19.144;2023-04-01T20:31:21;12.10;99.90
45619;DHT22;31343;47.520;19.144;2023-04-01T20:34:25;12.10;99.90
45619;DHT22;31343;47.520;19.144;2023-04-01T20:45:33;12.10;99.90
45619;DHT22;31343;47.520;19.144;2023-04-01T20:51:23;12.00;99.90
45619;DHT22;31343;47.520;19.144;2023-04-01T20:53:42;11.90;99.90
45619;DHT22;31343;47.520;19.144;2023-04-01T20:56:47;11.80;99.90
45619;DHT22;31343;47.520;19.144;2023-04-01T21:08:02;11.60;99.90
45619;DHT22;31343;47.520;19.144;2023-04-01T21:11:20;11.50;99.90
45619;DHT22;31343;47.520;19.144;2023-04-01T21:14:03;11.40;99.90
45619;DHT22;31343;47.520;19.144;2023-04-01T21:22:21;11.20;99.90
45619;DHT22;31343;47.520;19.144;2023-04-01T21:25:05;11.00;99.90
45619;DHT22;31343;47.520;19.144;2023-04-01T21:36:08;10.70;99.90
45619;DHT22;31343;47.520;19.144;2023-04-01T21:55:50;10.50;99.90
45619;DHT22;31343;47.520;19.144;2023-04-01T22:06:42;10.50;99.90
45619;DHT22;31343;47.520;19.144;2023-04-01T22:09:21;10.60;99.90
45619;DHT22;31343;47.520;19.144;2023-04-01T22:12:14;10.70;99.90
45619;DHT22;31343;47.520;19.144;2023-04-01T22:20:28;10.90;99.90
45619;DHT22;31343;47.520;19.144;2023-04-01T22:23:29;10.90;99.90
45619;DHT22;31343;47.520;19.144;2023-04-01T22:28:38;11.00;99.90
45619;DHT22;31343;47.520;19.144;2023-04-01T22:31:13;11.00;99.90
45619;DHT22;31343;47.520;19.144;2023-04-01T22:39:30;10.90;99.90
45619;DHT22;31343;47.520;19.144;2023-04-01T22:45:29;11.00;99.90
45619;DHT22;31343;47.520;19.144;2023-04-01T22:53:51;11.10;99.90
45619;DHT22;31343;47.520;19.144;2023-04-01T22:56:40;11.00;99.90
45619;DHT22;31343;47.520;19.144;2023-04-01T23:01:47;10.90;99.90
45619;DHT22;31343;47.520;19.144;2023-04-01T23:04:17;11.00;99.90
45619;DHT22;31343;47.520;19.144;2023-04-01T23:06:51;11.00;99.90
45619;DHT22;31343;47.520;19.144;2023-04-01T23:09:31;10.90;99.90
45619;DHT22;31343;47.520;19.144;2023-04-01T23:12:04;11.00;99.90
45619;DHT22;31343;47.520;19.144;2023-04-01T23:14:58;11.00;99.90
45619;DHT22;31343;47.520;19.144;2023-04-01T23:18:05;11.00;99.90
45619;DHT22;31343;47.520;19.144;2023-04-01T23:23:32;10.90;99.90
45619;DHT22;31343;47.520;19.144;2023-04-01T23:29:13;10.90;99.90
45619;DHT22;31343;47.520;19.144;2023-04-01T23:31:45;10.90;99.90
45619;DHT22;31343;47.520;19.144;2023-04-01T23:36:46;10.80;99.90
45619;DHT22;31343;47.520;19.144;2023-04-01T23:39:32;10.90;99.90
45619;DHT22;31343;47.520;19.144;2023-04-01T23:42:01;10.80;99.90
45619;DHT22;31343;47.520;19.144;2023-04-01T23:44:28;10.90;99.90
45619;DHT22;31343;47.520;19.144;2023-04-01T23:46:55;10.80;99.90
45619;DHT22;31343;47.520;19.144;2023-04-01T23:49:28;10.80;99.90
45619;DHT22;31343;47.520;19.144;2023-04-01T23:52:17;10.70;99.90
45619;DHT22;31343;47.520;19.144;2023-04-01T23:57:34;10.70;99.90
